createdAt,value
2019-02-14T00:00:26.773Z,30.40
2019-02-14T00:05:23.777Z,26.67
2019-02-14T00:10:19.522Z,28.40
2019-02-14T00:15:15.260Z,28.37
2019-02-14T00:20:11.488Z,19.43
2019-02-14T00:25:07.360Z,21.40
2019-02-14T00:30:03.435Z,23.07
2019-02-14T00:35:01.381Z,23.57
2019-02-14T00:39:57.148Z,26.07
2019-02-14T00:44:52.834Z,22.57
2019-02-14T00:49:48.658Z,21.43
2019-02-14T00:54:44.448Z,25.27
2019-02-14T00:59:40.344Z,24.60
2019-02-14T01:04:36.189Z,21.10
2019-02-14T01:09:31.978Z,22.20
2019-02-14T01:14:27.829Z,21.73
2019-02-14T01:19:23.638Z,20.90
2019-02-14T01:24:19.473Z,28.53
2019-02-14T01:29:15.196Z,20.83
2019-02-14T01:34:11.091Z,21.70
2019-02-14T01:39:07.425Z,20.80
2019-02-14T01:44:04.979Z,21.23
2019-02-14T01:49:02.800Z,20.20
2019-02-14T01:53:58.824Z,14.83
2019-02-14T01:58:54.578Z,15.23
2019-02-14T02:03:50.451Z,19.60
2019-02-14T02:08:46.271Z,18.73
2019-02-14T02:13:43.397Z,21.40
2019-02-14T02:18:39.989Z,20.67
2019-02-14T02:23:38.233Z,17.23
2019-02-14T02:28:34.087Z,17.83
2019-02-14T02:33:30.200Z,18.77
2019-02-14T02:38:25.987Z,17.37
2019-02-14T02:43:21.813Z,16.73
2019-02-14T02:48:17.537Z,17.37
2019-02-14T02:53:14.468Z,15.07
2019-02-14T02:58:10.248Z,18.53
2019-02-14T03:03:17.181Z,16.53
2019-02-14T03:08:16.037Z,15.60
2019-02-14T03:13:11.543Z,15.77
2019-02-14T03:18:07.404Z,17.07
2019-02-14T03:23:03.240Z,18.33
2019-02-14T03:28:01.573Z,14.43
2019-02-14T03:32:58.503Z,14.50
2019-02-14T03:37:54.417Z,15.13
2019-02-14T03:42:58.210Z,19.13
2019-02-14T03:47:52.973Z,19.27
2019-02-14T03:52:48.874Z,15.00
2019-02-14T03:57:44.899Z,14.00
2019-02-14T04:02:41.978Z,14.43
2019-02-14T04:07:37.881Z,14.07
2019-02-14T04:12:33.664Z,14.47
2019-02-14T04:17:32.082Z,13.77
2019-02-14T04:22:27.777Z,15.67
2019-02-14T04:27:23.672Z,13.13
2019-02-14T04:32:19.358Z,16.37
2019-02-14T04:37:24.065Z,13.43
2019-02-14T04:42:20.098Z,15.87
2019-02-14T04:47:15.773Z,16.93
2019-02-14T04:52:11.503Z,13.97
2019-02-14T04:57:07.232Z,12.83
2019-02-14T05:02:02.937Z,15.77
2019-02-14T05:06:58.792Z,16.60
2019-02-14T05:11:54.660Z,14.43
2019-02-14T05:16:50.427Z,13.20
2019-02-14T05:21:46.233Z,17.30
2019-02-14T05:26:44.102Z,14.33
2019-02-14T05:31:39.838Z,16.73
2019-02-14T05:36:35.723Z,20.90
2019-02-14T05:41:31.467Z,12.63
2019-02-14T05:46:27.335Z,12.93
2019-02-14T05:51:23.094Z,21.97
2019-02-14T05:56:18.832Z,16.77
2019-02-14T06:01:17.595Z,12.07
2019-02-14T06:06:13.360Z,16.67
2019-02-14T06:11:09.087Z,29.37
2019-02-14T06:16:05.892Z,28.90
2019-02-14T06:21:01.633Z,20.43
2019-02-14T06:25:58.998Z,21.23
2019-02-14T06:30:54.733Z,15.73
2019-02-14T06:35:50.520Z,15.17
2019-02-14T06:40:46.272Z,19.00
2019-02-14T06:45:42.122Z,22.30
2019-02-14T06:50:37.891Z,15.53
2019-02-14T06:55:33.800Z,18.60
2019-02-14T07:00:29.757Z,20.03
2019-02-14T07:05:25.666Z,20.30
2019-02-14T07:10:23.084Z,28.13
2019-02-14T07:15:19.022Z,27.03
2019-02-14T07:20:15.340Z,20.60
2019-02-14T07:25:11.430Z,16.40
2019-02-14T07:30:11.833Z,18.67
2019-02-14T07:35:08.821Z,34.53
2019-02-14T07:40:04.703Z,24.97
2019-02-14T07:45:00.484Z,28.37
2019-02-14T07:49:56.149Z,30.53
2019-02-14T07:54:51.950Z,27.17
2019-02-14T07:59:47.692Z,21.83
2019-02-14T08:04:43.628Z,29.00
2019-02-14T08:09:39.417Z,26.43
2019-02-14T08:14:36.721Z,31.40
2019-02-14T08:19:32.495Z,30.13
2019-02-14T08:24:28.332Z,24.43
2019-02-14T08:29:24.073Z,21.83
2019-02-14T08:34:19.988Z,22.20
2019-02-14T08:39:19.117Z,22.83
2019-02-14T08:44:15.016Z,15.67
2019-02-14T08:49:10.795Z,13.73
2019-02-14T08:54:06.805Z,18.07
2019-02-14T08:59:02.629Z,15.70
2019-02-14T09:03:58.467Z,10.30
2019-02-14T09:08:54.218Z,8.87
2019-02-14T09:13:52.778Z,7.43
2019-02-14T09:18:48.529Z,10.03
2019-02-14T09:23:44.440Z,11.77
2019-02-14T09:28:41.233Z,14.47
2019-02-14T09:33:37.157Z,9.33
2019-02-14T09:38:32.836Z,5.17
2019-02-14T09:43:30.115Z,3.33
2019-02-14T09:48:26.106Z,3.40
2019-02-14T09:53:21.847Z,3.90
2019-02-14T09:58:17.491Z,3.10
2019-02-14T10:03:13.265Z,2.70
2019-02-14T10:08:12.761Z,3.27
2019-02-14T10:13:07.489Z,3.67
2019-02-14T10:18:03.249Z,3.07
2019-02-14T10:22:58.995Z,8.03
2019-02-14T10:27:58.028Z,3.80
2019-02-14T10:32:53.766Z,5.07
2019-02-14T10:37:49.578Z,7.87
2019-02-14T10:42:47.507Z,4.17
2019-02-14T10:47:43.377Z,3.23
2019-02-14T10:52:39.625Z,5.50
2019-02-14T10:57:35.439Z,3.77
2019-02-14T11:02:31.246Z,2.17
2019-02-14T11:07:27.065Z,2.63
2019-02-14T11:12:22.835Z,3.20
2019-02-14T11:17:18.743Z,3.07
2019-02-14T11:22:17.158Z,2.37
2019-02-14T11:27:12.908Z,1.50
2019-02-14T11:32:08.643Z,1.70
2019-02-14T11:37:04.406Z,28.73
2019-02-14T11:42:00.113Z,3.10
2019-02-14T11:46:55.901Z,3.67
2019-02-14T11:51:51.609Z,3.10
2019-02-14T11:56:47.448Z,2.77
2019-02-14T12:01:43.196Z,2.87
2019-02-14T12:06:39.476Z,3.20
2019-02-14T12:11:35.191Z,2.00
2019-02-14T12:16:30.959Z,3.90
2019-02-14T12:21:26.716Z,1.30
2019-02-14T12:26:22.501Z,6.40
2019-02-14T12:31:18.780Z,4.83
2019-02-14T12:36:14.623Z,3.07
2019-02-14T12:41:10.432Z,4.30
2019-02-14T12:46:07.827Z,4.63
2019-02-14T12:51:03.646Z,3.97
2019-02-14T12:55:59.434Z,3.97
2019-02-14T13:00:56.202Z,15.50
2019-02-14T13:05:54.456Z,7.73
2019-02-14T13:10:50.455Z,3.33
2019-02-14T13:15:46.997Z,2.33
2019-02-14T13:20:42.663Z,3.17
2019-02-14T13:25:38.462Z,1.80
2019-02-14T13:30:34.272Z,2.80
2019-02-14T13:35:30.208Z,2.80
2019-02-14T13:40:25.847Z,3.50
2019-02-14T13:45:23.652Z,3.47
2019-02-14T13:50:22.544Z,4.50
2019-02-14T13:55:18.476Z,4.70
2019-02-14T14:00:19.583Z,3.40
2019-02-14T14:05:15.449Z,2.77
2019-02-14T14:10:11.151Z,3.20
2019-02-14T14:15:07.401Z,5.17
2019-02-14T14:20:03.094Z,4.50
2019-02-14T14:24:58.963Z,4.87
2019-02-14T14:29:54.693Z,4.73
2019-02-14T14:34:50.610Z,7.27
2019-02-14T14:39:48.054Z,3.73
2019-02-14T14:44:46.340Z,2.90
2019-02-14T14:49:42.086Z,4.57
2019-02-14T14:54:37.893Z,6.60
2019-02-14T14:59:33.764Z,3.53
2019-02-14T15:04:29.635Z,5.67
2019-02-14T15:09:25.460Z,5.80
2019-02-14T15:14:21.356Z,3.83
2019-02-14T15:19:17.001Z,2.97
2019-02-14T15:24:13.049Z,6.17
2019-02-14T15:29:09.909Z,4.50
2019-02-14T15:34:05.632Z,5.73
2019-02-14T15:39:01.502Z,6.37
2019-02-14T15:43:58.419Z,23.30
2019-02-14T15:48:54.311Z,22.97
2019-02-14T15:53:50.451Z,20.23
2019-02-14T15:58:46.544Z,24.43
2019-02-14T16:03:42.814Z,17.77
2019-02-14T16:08:38.709Z,12.07
2019-02-14T16:13:34.461Z,17.43
2019-02-14T16:18:30.440Z,180.17
2019-02-14T16:23:27.805Z,36.53
2019-02-14T16:28:23.577Z,36.23
2019-02-14T16:33:20.174Z,20.47
2019-02-14T16:38:16.139Z,20.07
2019-02-14T16:43:11.802Z,48.90
2019-02-14T16:48:07.583Z,27.37
2019-02-14T16:53:03.383Z,22.80
2019-02-14T16:57:59.137Z,65.97
2019-02-14T17:02:54.860Z,62.10
2019-02-14T17:07:50.582Z,51.20
2019-02-14T17:12:48.639Z,34.43
2019-02-14T17:17:44.332Z,41.73
2019-02-14T17:22:39.985Z,33.37
2019-02-14T17:27:36.737Z,36.70
2019-02-14T17:32:33.603Z,36.87
2019-02-14T17:37:29.409Z,38.13
2019-02-14T17:42:25.948Z,41.73
2019-02-14T17:47:21.790Z,31.77
2019-02-14T17:52:17.647Z,44.97
2019-02-14T17:57:13.480Z,45.33
2019-02-14T18:02:11.427Z,35.23
2019-02-14T18:07:07.196Z,38.47
2019-02-14T18:12:03.976Z,30.87
2019-02-14T18:16:59.728Z,27.90
2019-02-14T18:21:55.580Z,30.07
2019-02-14T18:26:51.703Z,30.13
2019-02-14T18:31:47.779Z,27.67
2019-02-14T18:36:43.579Z,25.97
2019-02-14T18:41:40.403Z,46.40
2019-02-14T18:46:36.175Z,29.27
2019-02-14T18:51:32.064Z,25.63
2019-02-14T18:56:27.980Z,28.37
2019-02-14T19:01:24.043Z,23.20
2019-02-14T19:06:20.070Z,25.03
2019-02-14T19:11:16.368Z,28.03
2019-02-14T19:16:12.369Z,28.53
2019-02-14T19:21:09.487Z,39.00
2019-02-14T19:26:05.685Z,40.50
2019-02-14T19:31:01.904Z,45.20
2019-02-14T19:35:57.926Z,44.53
2019-02-14T19:40:53.878Z,38.83
2019-02-14T19:45:50.253Z,37.13
2019-02-14T19:50:47.736Z,62.80
2019-02-14T19:55:46.424Z,45.50
2019-02-14T20:00:47.716Z,27.07
2019-02-14T20:05:45.041Z,55.10
2019-02-14T20:10:40.808Z,49.97
2019-02-14T20:15:37.595Z,49.53
2019-02-14T20:20:33.519Z,47.70
2019-02-14T20:25:32.319Z,43.67
2019-02-14T20:30:28.525Z,46.97
2019-02-14T20:35:24.726Z,45.47
2019-02-14T20:40:20.477Z,41.57
2019-02-14T20:45:18.999Z,39.07
2019-02-14T20:50:17.055Z,38.50
2019-02-14T20:55:14.489Z,34.10
2019-02-14T21:00:20.825Z,29.23
2019-02-14T21:05:16.744Z,37.27
2019-02-14T21:10:12.851Z,33.70
2019-02-14T21:15:09.945Z,37.03
2019-02-14T21:20:07.654Z,29.00
2019-02-14T21:25:03.491Z,30.03
2019-02-14T21:29:59.165Z,26.97
2019-02-14T21:34:56.640Z,25.00
2019-02-14T21:39:52.307Z,24.33
2019-02-14T21:44:48.191Z,25.13
2019-02-14T21:49:45.242Z,20.80
2019-02-14T21:54:41.047Z,25.80
2019-02-14T21:59:37.919Z,22.87
2019-02-14T22:04:33.703Z,20.10
2019-02-14T22:09:29.386Z,24.13
2019-02-14T22:14:25.405Z,24.87
2019-02-14T22:19:21.068Z,20.23
2019-02-14T22:24:16.774Z,23.27
2019-02-14T22:29:12.729Z,22.37
2019-02-14T22:34:10.190Z,23.83
2019-02-14T22:39:06.933Z,27.37
2019-02-14T22:44:04.429Z,33.83
2019-02-14T22:49:00.669Z,27.97
2019-02-14T22:53:56.441Z,28.73
2019-02-14T22:58:52.276Z,27.07
2019-02-14T23:03:48.192Z,30.20
2019-02-14T23:08:44.364Z,23.80
2019-02-14T23:13:40.192Z,22.73
2019-02-14T23:18:35.909Z,27.37
2019-02-14T23:23:31.760Z,26.93
2019-02-14T23:28:27.448Z,37.53
2019-02-14T23:33:23.324Z,29.03
2019-02-14T23:38:19.138Z,23.53
2019-02-14T23:43:14.882Z,22.13
2019-02-14T23:48:10.649Z,22.27
2019-02-14T23:53:06.423Z,26.13
2019-02-14T23:58:02.245Z,21.10
